Weather reports worldwide

Advertisment
Cairngorm, United Kingdom (3065): temperature & dewpoint: 16.01.2019 03:00:00 - 22.01.2019 03:00:00 (GMT)Cairngorm, United Kingdom (3065): wind speed & gusts: 16.01.2019 03:00:00 - 22.01.2019 03:00:00 (GMT)Cairngorm, United Kingdom (3065): wind direction: 16.01.2019 03:00:00 - 22.01.2019 03:00:00 (GMT)
Date & Time tt [°C] td [°C] ff [km/h] ff [kn] fx [km/h] fx [kn] dd
22.01.2019 03:00:00 -5,8 -6,2 55 30 65 35 WNW
22.01.2019 02:00:00 -5,8 -6,1 50 27 55 30 W
22.01.2019 01:00:00 -5,8 -6,2 41 22 61 33 WNW
22.01.2019 00:00:00 -5,8 -6,2 48 26 59 32 WNW
21.01.2019 23:00:00 -5,5 -5,9 48 26 76 41 WNW
21.01.2019 22:00:00 -4,5 -4,8 44 24 68 37 W
21.01.2019 21:00:00 -4,6 -4,9 46 25 89 48 SW
21.01.2019 20:00:00 -4,6 -4,9 59 32 104 56 S
21.01.2019 19:00:00 -4,9 -5,1 67 36 113 61 S
21.01.2019 18:00:00 -5,1 -5,4 76 41 130 70 S
21.01.2019 17:00:00 -4,9 -5,2 104 56 124 67 S
21.01.2019 16:00:00 -4,8 -5,1 83 45 106 57 S
21.01.2019 15:00:00 -4,8 -5,0 87 47 107 58 S
21.01.2019 14:00:00 -4,9 -5,1 70 38 107 58 S
21.01.2019 13:00:00 -5,2 -5,4 91 49 113 61 SSW
21.01.2019 12:00:00 -5,3 -5,6 96 52 115 62 SSW
21.01.2019 11:00:00 -5,3 -5,6 91 49 106 57 SSW
21.01.2019 10:00:00 -5,1 -5,3 72 39 87 47 SSW
21.01.2019 09:00:00 -4,8 -5,3 57 31 80 43 SW
21.01.2019 08:00:00 -4,8 -4,9 67 36 85 46 SW
21.01.2019 07:00:00 -4,7 -4,9 55 30 76 41 SW
21.01.2019 06:00:00 -5,0 -5,3 59 32 70 38 WSW
21.01.2019 05:00:00 -5,2 -5,5 48 26 63 34 WSW
21.01.2019 04:00:00 -5,2 -5,5 46 25 63 34 WSW
21.01.2019 03:00:00 -5,1 -5,3 48 26 68 37 W
21.01.2019 02:00:00 -5,1 -5,4 44 24 63 34 W
21.01.2019 01:00:00 -5,5 -5,7 41 22 57 31 W
21.01.2019 00:00:00 -5,7 -5,9 37 20 57 31 W
20.01.2019 23:00:00 -5,7 -6,0 35 19 54 29 W
20.01.2019 22:00:00 -5,7 -6,0 31 17 54 29 W
20.01.2019 21:00:00 -6,2 -6,5 28 15 52 28 W
20.01.2019 20:00:00 -6,0 -6,3 42 23 68 37 W
20.01.2019 19:00:00 -5,9 -6,2 34 18 65 35 W
20.01.2019 18:00:00 -6,1 -6,4 46 25 91 49 WNW
20.01.2019 17:00:00 -5,9 -6,2 68 37 85 46 WNW
20.01.2019 16:00:00 -5,3 -5,5 68 37 80 43 WNW
20.01.2019 15:00:00 -4,9 -5,1 41 22 78 42 WNW
20.01.2019 14:00:00 -4,7 -4,8 61 33 83 45 WNW
20.01.2019 13:00:00 -4,1 -4,2 42 23 68 37 WNW
20.01.2019 12:00:00 -4,0 -4,1 54 29 78 42 WNW
20.01.2019 11:00:00 -3,0 -3,0 26 14 54 29 WNW
20.01.2019 10:00:00 -2,7 -2,7 15 8 - - NW
20.01.2019 09:00:00 -3,3 -3,5 8 4 - - NNW
20.01.2019 08:00:00 -3,5 -3,8 11 6 - - WNW
20.01.2019 07:00:00 -3,4 -3,5 9 5 - - NW
20.01.2019 06:00:00 -3,4 -3,5 5 3 - - N
20.01.2019 05:00:00 -3,6 -3,6 4 2 - - NW
20.01.2019 04:00:00 -3,3 -3,4 8 4 - - WNW
20.01.2019 03:00:00 -3,2 -3,4 11 6 - - WNW
20.01.2019 02:00:00 -3,3 -3,4 15 8 - - WNW
20.01.2019 01:00:00 -3,1 -3,2 13 7 - - WNW
20.01.2019 00:00:00 -3,0 -3,0 11 6 - - WNW
19.01.2019 23:00:00 -3,0 -3,0 2 1 - - WNW
19.01.2019 22:00:00 -3,4 -3,4 4 2 - - WNW
19.01.2019 21:00:00 -3,4 -3,5 2 1 - - WSW
19.01.2019 20:00:00 -3,0 -3,1 4 2 - - ENE
19.01.2019 19:00:00 -3,0 -3,0 4 2 - - N
19.01.2019 18:00:00 -3,3 -3,3 0 0 - - N
19.01.2019 17:00:00 -2,9 -2,9 4 2 - - N
19.01.2019 16:00:00 -1,7 -1,8 2 1 - - W
19.01.2019 15:00:00 -2,3 -2,3 11 6 - - S
19.01.2019 14:00:00 -2,0 -2,0 11 6 - - S
19.01.2019 13:00:00 -1,7 -1,8 8 4 - - S
19.01.2019 12:00:00 -1,2 -1,2 9 5 - - SE
19.01.2019 11:00:00 -2,4 -2,4 5 3 - - E
19.01.2019 10:00:00 -2,9 -2,9 2 1 - - NW
19.01.2019 09:00:00 -3,2 -3,2 2 1 - - NW
19.01.2019 08:00:00 -3,4 -3,5 2 1 - - N
19.01.2019 07:00:00 -3,2 -3,3 9 5 - - E
19.01.2019 06:00:00 -3,2 -3,3 4 2 - - SSE
19.01.2019 05:00:00 -3,1 -3,1 5 3 - - SSW
19.01.2019 04:00:00 -3,3 -3,3 2 1 - - SSE
19.01.2019 03:00:00 -4,8 -5,0 15 8 - - SW
19.01.2019 02:00:00 -4,9 -5,2 18 10 - - SW
19.01.2019 01:00:00 -5,3 -5,5 24 13 - - S
19.01.2019 00:00:00 -5,5 -5,8 24 13 46 25 SSE
18.01.2019 23:00:00 -5,2 -5,5 26 14 - - S
18.01.2019 22:00:00 -5,8 -6,1 31 17 46 25 S
18.01.2019 21:00:00 -6,3 -6,6 34 18 52 28 S
18.01.2019 20:00:00 -6,3 -6,7 37 20 67 36 S
18.01.2019 19:00:00 -7,2 -7,6 41 22 70 38 S
18.01.2019 18:00:00 -7,2 -7,7 54 29 76 41 S
18.01.2019 17:00:00 -7,2 -7,8 54 29 78 42 S
18.01.2019 16:00:00 -7,5 -8,0 54 29 74 40 S
18.01.2019 15:00:00 -8,5 -9,1 50 27 74 40 SSE
18.01.2019 14:00:00 -8,4 -8,8 55 30 80 43 SSE
18.01.2019 13:00:00 -8,4 -8,8 57 31 74 40 SSE
18.01.2019 12:00:00 -8,1 -8,7 55 30 87 47 SSE
18.01.2019 11:00:00 -8,1 -8,6 46 25 67 36 SSE
18.01.2019 10:00:00 -8,3 -8,8 48 26 61 33 S
18.01.2019 09:00:00 -8,2 -8,7 50 27 65 35 S
18.01.2019 08:00:00 -8,1 -8,6 50 27 61 33 S
18.01.2019 07:00:00 -8,0 -8,5 52 28 61 33 S
18.01.2019 06:00:00 -7,6 -8,1 52 28 65 35 S
18.01.2019 05:00:00 -7,5 -8,0 48 26 57 31 S
18.01.2019 04:00:00 -7,6 -8,1 48 26 65 35 S
18.01.2019 03:00:00 -7,6 -8,1 50 27 57 31 S
18.01.2019 02:00:00 -7,8 -8,3 41 22 50 27 SSW
18.01.2019 01:00:00 -7,9 -8,5 39 21 48 26 SSW
18.01.2019 00:00:00 -8,1 -8,7 26 14 - - SSW
17.01.2019 23:00:00 -7,7 -8,2 21 11 - - WSW
17.01.2019 22:00:00 -7,3 -7,8 8 4 - - SW
17.01.2019 21:00:00 -6,8 -7,3 0 0 - - N
17.01.2019 20:00:00 -6,8 -7,2 15 8 - - WNW
17.01.2019 19:00:00 -6,7 -7,1 5 3 - - NNW
17.01.2019 18:00:00 -6,7 -7,1 2 1 - - NNE
17.01.2019 17:00:00 -6,6 -7,0 22 12 - - NW
17.01.2019 16:00:00 -6,6 -7,0 18 10 - - WNW
17.01.2019 15:00:00 -6,5 -6,8 28 15 - - NW
17.01.2019 14:00:00 -6,6 -6,9 35 19 120 65 NNW
17.01.2019 13:00:00 -6,6 -7,0 - - 89 48 -
17.01.2019 12:00:00 -6,9 -7,3 31 17 93 50 NNW
17.01.2019 11:00:00 -7,0 -7,4 44 24 169 91 NNW
17.01.2019 10:00:00 -7,3 -7,7 - - 117 63 -
17.01.2019 09:00:00 -7,4 -7,9 48 26 96 52 NNW
17.01.2019 08:00:00 -7,6 -8,1 50 27 104 56 WNW
17.01.2019 07:00:00 -7,6 -8,1 - - - - -
17.01.2019 06:00:00 -7,8 -8,4 - - 109 59 -
17.01.2019 05:00:00 -7,8 -8,3 - - 120 65 -
17.01.2019 04:00:00 -8,0 -8,5 - - - - -
17.01.2019 03:00:00 -8,9 -9,5 - - - - -
17.01.2019 02:00:00 -8,8 -9,4 - - 93 50 -
17.01.2019 01:00:00 -8,7 -9,3 - - - - -
17.01.2019 00:00:00 -8,6 -9,2 - - 94 51 -
16.01.2019 23:00:00 -8,5 -9,1 - - 94 51 -
16.01.2019 22:00:00 -8,0 -8,5 - - - - -
16.01.2019 21:00:00 -6,9 -7,4 - - - - -
16.01.2019 20:00:00 -5,6 -5,9 - - - - -
16.01.2019 19:00:00 -4,8 -4,9 - - 106 57 -
16.01.2019 18:00:00 -4,9 -5,1 55 30 89 48 NW
16.01.2019 17:00:00 -4,9 -5,1 - - - - -
16.01.2019 16:00:00 -4,9 -5,1 - - 106 57 -
16.01.2019 15:00:00 -4,1 -4,2 87 47 106 57 WNW
16.01.2019 14:00:00 -4,2 -4,2 89 48 109 59 W
16.01.2019 13:00:00 -3,8 -3,8 78 42 96 52 W
16.01.2019 12:00:00 -3,8 -3,8 76 41 102 55 W
16.01.2019 11:00:00 -3,8 -3,8 70 38 102 55 W
16.01.2019 10:00:00 -3,6 -3,6 74 40 104 56 W
16.01.2019 09:00:00 -3,3 -3,3 61 33 98 53 W
16.01.2019 08:00:00 -2,6 -2,6 61 33 109 59 W
16.01.2019 07:00:00 -2,2 -2,2 59 32 89 48 W
16.01.2019 06:00:00 -2,3 -2,3 44 24 57 31 WSW
16.01.2019 05:00:00 -2,2 -2,2 42 23 65 35 W
16.01.2019 04:00:00 -1,8 -1,8 44 24 68 37 W
16.01.2019 03:00:00 -1,6 -1,6 61 33 87 47 W

tt = temperature
td = dewpoint
ff = wind speed
fx = gusts
dd = wind direction

Next stations